Time;durP1;ratioP1;P1;durP2;ratioP2;P2;SDS_P1;SDS_P2;PMS_P1;PMS_P2;Temp;Humidity;BMP_temperature;BMP_pressure;BME280_temperature;BME280_humidity;BME280_pressure;Samples;Min_cycle;Max_cycle;Signal;HPM_P1;HPM_P2
2022/05/29 00:00:10;;;;;;;18.80;7.88;;;;;;;16.16;98.88;94252.59;5025154;28;20212;-73
2022/05/29 00:02:37;;;;;;;19.13;7.18;;;;;;;16.18;99.51;94266.66;5027144;28;20204;-74
2022/05/29 00:05:05;;;;;;;14.75;7.93;;;;;;;16.20;99.98;94269.81;5023489;28;20204;-72
2022/05/29 00:07:33;;;;;;;14.13;7.88;;;;;;;16.31;100.00;94251.59;5020111;28;20216;-72
2022/05/29 00:10:03;;;;;;;23.23;8.05;;;;;;;16.25;99.95;94238.66;5033866;28;20262;-72
2022/05/29 00:12:30;;;;;;;18.73;7.65;;;;;;;16.17;100.00;94248.69;5033367;28;20235;-72
2022/05/29 00:14:57;;;;;;;13.13;6.80;;;;;;;16.28;100.00;94266.00;5033532;28;20208;-72
2022/05/29 00:17:24;;;;;;;16.38;7.60;;;;;;;16.41;100.00;94263.00;5033252;28;20231;-72
2022/05/29 00:19:51;;;;;;;14.35;7.50;;;;;;;16.47;100.00;94262.31;5022930;28;20228;-72
2022/05/29 00:22:20;;;;;;;17.13;7.95;;;;;;;16.44;99.88;94257.59;5026982;28;20212;-72
2022/05/29 00:24:50;;;;;;;15.48;6.93;;;;;;;16.45;100.00;94258.38;5024652;28;20231;-72
2022/05/29 00:27:18;;;;;;;12.50;7.28;;;;;;;16.44;100.00;94240.41;5014188;28;20211;-72
2022/05/29 00:29:45;;;;;;;20.92;7.85;;;;;;;16.45;100.00;94214.63;5026176;28;20231;-72
2022/05/29 00:32:13;;;;;;;15.50;7.78;;;;;;;16.37;100.00;94172.00;5020014;28;20221;-72
2022/05/29 00:34:40;;;;;;;18.95;8.13;;;;;;;16.42;100.00;94155.25;5020058;28;20228;-72
2022/05/29 00:37:09;;;;;;;15.18;7.68;;;;;;;16.50;100.00;94167.84;5019473;28;20197;-72
2022/05/29 00:39:36;;;;;;;13.90;7.25;;;;;;;16.56;100.00;94179.97;5033021;28;20324;-73
2022/05/29 00:42:06;;;;;;;18.33;7.55;;;;;;;16.46;100.00;94167.00;5019959;28;20205;-72
2022/05/29 00:44:35;;;;;;;14.80;7.38;;;;;;;16.42;99.84;94166.16;5046404;28;20199;-72
2022/05/29 00:47:12;;;;;;;16.35;8.00;;;;;;;16.35;100.00;94154.03;5032596;28;20328;-73
2022/05/29 00:49:40;;;;;;;17.85;7.97;;;;;;;16.25;99.99;94146.50;5019945;28;20196;-72
2022/05/29 00:52:12;;;;;;;14.32;7.25;;;;;;;16.22;100.00;94158.19;5022965;28;20225;-72
2022/05/29 00:54:42;;;;;;;18.55;8.32;;;;;;;16.31;100.00;94205.13;5025411;28;20241;-72
2022/05/29 00:57:13;;;;;;;16.25;8.13;;;;;;;16.30;100.00;94200.81;5023279;28;20208;-73
2022/05/29 00:59:41;;;;;;;11.85;7.57;;;;;;;16.13;100.00;94138.53;5032406;28;20376;-72
2022/05/29 01:02:08;;;;;;;18.30;8.40;;;;;;;16.08;100.00;94147.09;5021121;28;20209;-73
2022/05/29 01:04:37;;;;;;;19.20;8.45;;;;;;;16.00;99.89;94135.28;5029576;28;20236;-72
2022/05/29 01:07:07;;;;;;;17.10;6.65;;;;;;;15.92;99.22;94127.41;5032182;28;20201;-72
2022/05/29 01:09:34;;;;;;;14.93;7.13;;;;;;;15.84;98.12;94114.84;5031800;28;20674;-72
2022/05/29 01:12:07;;;;;;;14.98;6.13;;;;;;;15.81;96.89;94115.56;5032247;28;20296;-73
2022/05/29 01:14:51;;;;;;;12.95;6.05;;;;;;;15.78;97.22;94127.25;5019536;28;20201;-72
2022/05/29 01:17:26;;;;;;;11.90;5.30;;;;;;;15.77;97.02;94150.25;5032656;28;20204;-73
2022/05/29 01:20:05;;;;;;;15.85;5.82;;;;;;;15.82;97.21;94139.00;5031939;28;20220;-73
2022/05/29 01:22:51;;;;;;;14.23;5.20;;;;;;;15.86;97.31;94140.59;5031753;28;20211;-73
2022/05/29 01:25:51;;;;;;;13.68;5.13;;;;;;;15.87;97.50;94179.63;5031099;28;20234;-73
2022/05/29 01:28:45;;;;;;;13.93;4.88;;;;;;;15.76;95.20;94124.09;5025201;28;20220;-72
2022/05/29 01:31:15;;;;;;;10.15;3.75;;;;;;;15.72;93.99;94123.25;5020219;28;20285;-72
2022/05/29 01:33:47;;;;;;;9.45;4.85;;;;;;;15.69;95.64;94135.72;5032169;28;20311;-72
2022/05/29 01:36:21;;;;;;;13.50;5.57;;;;;;;15.71;96.66;94113.50;5031827;28;20650;-72
2022/05/29 01:38:55;;;;;;;11.73;5.22;;;;;;;15.69;97.12;94121.28;5018902;28;20220;-72
2022/05/29 01:41:29;;;;;;;10.82;4.57;;;;;;;15.73;98.10;94125.63;5030651;28;20200;-72
2022/05/29 01:44:07;;;;;;;10.32;3.78;;;;;;;15.64;96.14;94125.91;5020849;28;20192;-72
2022/05/29 01:46:35;;;;;;;9.07;3.45;;;;;;;15.60;96.45;94116.88;5027918;28;20232;-72
2022/05/29 01:49:14;;;;;;;6.50;3.28;;;;;;;15.60;95.09;94111.41;5022681;28;20287;-73
2022/05/29 01:51:47;;;;;;;10.48;3.30;;;;;;;15.63;95.39;94107.16;5018337;28;20228;-73
2022/05/29 01:54:19;;;;;;;9.43;3.97;;;;;;;15.58;95.18;94091.13;5018601;28;20224;-73
2022/05/29 01:56:50;;;;;;;13.23;3.90;;;;;;;15.63;94.65;94099.75;5023850;28;20229;-73
2022/05/29 01:59:22;;;;;;;10.75;3.20;;;;;;;15.64;94.89;94098.59;5024983;28;20232;-73
2022/05/29 02:01:55;;;;;;;8.73;3.47;;;;;;;15.67;94.95;94101.75;5021194;28;20227;-74
2022/05/29 02:04:26;;;;;;;8.27;3.00;;;;;;;15.66;94.47;94097.44;5018219;28;20228;-73
2022/05/29 02:09:43;;;;;;;9.52;2.85;;;;;;;15.72;92.88;94090.47;5019119;28;20794;-73
2022/05/29 02:12:22;;;;;;;14.98;3.70;;;;;;;15.63;93.01;94094.31;5030229;28;20712;-74
2022/05/29 02:14:57;;;;;;;8.82;2.83;;;;;;;15.63;92.87;94094.31;5021009;28;20203;-73
2022/05/29 02:17:28;;;;;;;7.80;2.70;;;;;;;15.52;92.90;94093.38;5018236;28;20624;-73
2022/05/29 02:20:00;;;;;;;7.00;2.50;;;;;;;15.50;92.54;94084.75;5020137;28;20228;-73
2022/05/29 02:22:30;;;;;;;12.15;2.55;;;;;;;15.48;92.05;94076.16;5024966;28;20225;-74
2022/05/29 02:25:03;;;;;;;4.35;2.42;;;;;;;15.52;91.38;94082.44;5024109;28;20208;-74
2022/05/29 02:27:34;;;;;;;7.40;2.38;;;;;;;15.49;92.06;94083.19;5018492;28;20615;-74
2022/05/29 02:30:05;;;;;;;6.20;2.60;;;;;;;15.52;90.93;94071.53;5029570;28;20200;-74
2022/05/29 02:32:42;;;;;;;8.32;3.13;;;;;;;15.45;90.97;94071.41;5019514;28;20224;-73
2022/05/29 02:35:15;;;;;;;5.07;2.13;;;;;;;15.45;91.40;94065.97;5018362;28;20188;-73
2022/05/29 02:37:49;;;;;;;3.95;2.08;;;;;;;15.34;91.55;94053.34;5030807;28;20208;-73
2022/05/29 02:40:27;;;;;;;7.32;3.08;;;;;;;15.25;91.67;94042.72;5031037;28;20222;-74
2022/05/29 02:43:08;;;;;;;6.40;2.42;;;;;;;15.18;93.05;94039.91;5031130;28;20207;-74
2022/05/29 02:45:43;;;;;;;6.75;2.35;;;;;;;15.15;92.85;94040.66;5030684;28;20251;-74
2022/05/29 02:48:22;;;;;;;9.18;2.53;;;;;;;15.10;92.30;94032.78;5018124;28;20224;-74
2022/05/29 02:50:58;;;;;;;10.55;2.45;;;;;;;15.03;91.77;94030.78;5018907;28;20599;-74
2022/05/29 02:53:24;;;;;;;3.63;2.20;;;;;;;15.02;92.27;94031.13;5024225;28;20220;-74
2022/05/29 02:55:53;;;;;;;5.85;2.67;;;;;;;15.09;92.02;94026.56;5024319;28;20303;-74
2022/05/29 02:58:25;;;;;;;7.68;2.72;;;;;;;15.08;91.72;94030.44;5018029;28;20212;-74
2022/05/29 03:01:07;;;;;;;7.60;2.85;;;;;;;15.11;92.78;94023.44;5030502;28;20196;-74
2022/05/29 03:03:36;;;;;;;6.05;2.70;;;;;;;15.10;91.37;94021.88;5020884;28;20217;-74
2022/05/29 03:06:20;;;;;;;8.05;2.63;;;;;;;15.10;90.93;94021.88;5024083;28;20240;-74
2022/05/29 03:09:01;;;;;;;13.85;3.38;;;;;;;15.09;91.15;94020.31;5023636;28;20266;-74
2022/05/29 03:11:38;;;;;;;4.68;2.28;;;;;;;15.13;91.39;94018.41;5019109;28;20713;-74
2022/05/29 03:14:11;;;;;;;9.43;2.40;;;;;;;15.07;92.70;94028.06;5027992;28;20316;-74
2022/05/29 03:16:47;;;;;;;16.63;2.35;;;;;;;15.21;92.99;94011.88;5021208;28;20224;-74
2022/05/29 03:19:26;;;;;;;5.38;2.28;;;;;;;15.25;92.83;94001.81;5017274;28;20224;-74
2022/05/29 03:22:04;;;;;;;6.18;2.50;;;;;;;15.27;92.09;93999.50;5016919;28;20319;-74
2022/05/29 03:24:41;;;;;;;6.85;3.10;;;;;;;15.49;91.40;93995.03;5021973;28;20232;-74
2022/05/29 03:27:14;;;;;;;6.40;3.10;;;;;;;15.64;90.10;93992.13;5025890;28;20208;-74
2022/05/29 03:29:46;;;;;;;6.95;3.10;;;;;;;15.76;89.42;93991.06;5025964;28;20225;-74
2022/05/29 03:32:16;;;;;;;7.28;2.95;;;;;;;15.87;89.81;93993.88;5021095;28;20687;-74
2022/05/29 03:34:43;;;;;;;6.70;3.20;;;;;;;15.89;89.02;93991.56;5021307;28;20618;-74
2022/05/29 03:37:09;;;;;;;6.30;2.95;;;;;;;15.79;89.51;93995.78;5033924;28;20196;-74
2022/05/29 03:39:36;;;;;;;6.20;2.95;;;;;;;15.86;89.05;93997.78;5034383;28;20231;-74
2022/05/29 03:42:05;;;;;;;11.65;3.55;;;;;;;16.12;88.93;94005.06;5020375;28;20212;-74
2022/05/29 03:44:32;;;;;;;7.75;2.97;;;;;;;16.32;88.62;93998.97;5033918;28;20243;-74
2022/05/29 03:46:59;;;;;;;7.13;3.00;;;;;;;16.39;87.39;93997.47;5021088;28;20240;-74
2022/05/29 03:49:27;;;;;;;5.85;2.80;;;;;;;16.41;86.96;93995.09;5020991;28;20225;-73
2022/05/29 03:51:55;;;;;;;6.85;2.88;;;;;;;16.16;86.82;93992.97;5034274;28;20220;-73
2022/05/29 03:54:23;;;;;;;10.60;3.20;;;;;;;16.00;88.34;93986.97;5034016;28;20212;-73
2022/05/29 03:56:50;;;;;;;7.80;2.83;;;;;;;15.98;88.79;93989.31;5026027;28;20205;-74
2022/05/29 03:59:17;;;;;;;9.60;3.30;;;;;;;16.06;87.28;93984.69;5027298;28;20232;-73
2022/05/29 04:01:44;;;;;;;5.25;2.78;;;;;;;16.17;87.51;93980.88;5021648;28;20598;-73
2022/05/29 04:04:11;;;;;;;7.47;2.90;;;;;;;16.34;85.89;93980.25;5018926;28;20208;-74
2022/05/29 04:06:40;;;;;;;7.18;2.67;;;;;;;16.41;84.25;93974.03;5021901;28;20257;-74
2022/05/29 04:12:05;;;;;;;3.75;2.20;;;;;;;16.46;84.19;93970.94;5022735;28;20205;-74
2022/05/29 04:14:33;;;;;;;6.30;1.65;;;;;;;16.52;82.63;93968.66;5027569;28;20232;-73
2022/05/29 04:17:00;;;;;;;10.80;2.42;;;;;;;16.61;82.26;93969.09;5026510;28;20262;-73
2022/05/29 04:19:28;;;;;;;6.68;2.20;;;;;;;16.90;81.72;93961.84;5020478;28;20228;-74
2022/05/29 04:21:56;;;;;;;6.68;2.25;;;;;;;17.60;78.43;93966.78;5033749;28;20220;-73
2022/05/29 04:24:23;;;;;;;3.47;2.00;;;;;;;17.74;78.20;93966.84;5026839;28;20243;-73
2022/05/29 04:26:51;;;;;;;4.68;1.98;;;;;;;17.86;76.85;93962.94;5026988;28;20204;-73
2022/05/29 04:29:19;;;;;;;8.90;2.80;;;;;;;18.24;76.84;93961.38;5020359;28;20719;-72
2022/05/29 04:34:28;;;;;;;7.05;2.03;;;;;;;18.05;75.43;93970.00;5023337;28;20205;-73
2022/05/29 04:36:56;;;;;;;6.97;2.95;;;;;;;17.89;76.65;93961.38;5028759;28;20200;-73
2022/05/29 04:39:23;;;;;;;6.95;3.35;;;;;;;17.92;75.95;93972.34;5032768;28;20220;-73
2022/05/29 04:41:50;;;;;;;5.28;2.53;;;;;;;18.29;74.97;93980.19;5028546;28;20212;-72
2022/05/29 04:44:17;;;;;;;4.00;2.03;;;;;;;18.54;72.71;93973.91;5024276;28;20247;-74
2022/05/29 04:46:45;;;;;;;7.07;2.50;;;;;;;19.02;71.87;93975.00;5032274;28;20267;-74
2022/05/29 04:49:12;;;;;;;6.60;2.20;;;;;;;19.69;69.40;93960.19;5032710;28;20232;-72
2022/05/29 04:51:38;;;;;;;7.20;3.08;;;;;;;19.74;69.58;93968.03;5019226;28;20200;-73
2022/05/29 04:54:07;;;;;;;8.40;3.00;;;;;;;19.81;68.69;93962.50;5033211;28;20200;-73
2022/05/29 04:56:34;;;;;;;7.45;2.80;;;;;;;20.28;68.67;93962.94;5014391;28;20213;-74
2022/05/29 04:59:00;;;;;;;5.50;2.53;;;;;;;20.67;68.70;93961.84;5025805;28;20207;-75
2022/05/29 05:01:27;;;;;;;4.93;2.30;;;;;;;21.16;67.26;93960.53;5019351;28;20208;-74
2022/05/29 05:03:54;;;;;;;7.57;3.13;;;;;;;21.69;65.16;93959.91;5030384;28;20208;-73
2022/05/29 05:06:21;;;;;;;3.95;2.15;;;;;;;23.02;64.16;93954.66;5031746;28;20255;-73
2022/05/29 05:08:48;;;;;;;6.10;2.55;;;;;;;24.59;57.22;93947.31;5032444;28;20205;-74
2022/05/29 05:11:16;;;;;;;7.00;3.17;;;;;;;26.78;56.46;93935.81;5030924;28;20211;-71
2022/05/29 05:13:43;;;;;;;7.93;2.63;;;;;;;26.48;48.67;93945.53;5018951;28;20236;-74
2022/05/29 05:16:10;;;;;;;8.48;3.35;;;;;;;24.27;54.70;93959.16;5025732;28;20232;-75
2022/05/29 05:18:36;;;;;;;10.07;4.05;;;;;;;21.54;62.26;93964.03;5024586;28;20215;-74
2022/05/29 05:21:06;;;;;;;7.70;3.65;;;;;;;20.48;66.99;93971.47;5018202;28;20247;-74
2022/05/29 05:23:34;;;;;;;11.57;3.90;;;;;;;20.00;68.56;93974.16;5018795;28;20296;-77
2022/05/29 05:26:01;;;;;;;7.53;3.35;;;;;;;19.58;69.57;93962.22;5019324;28;20224;-73
2022/05/29 05:28:29;;;;;;;7.38;3.40;;;;;;;19.34;70.67;93966.66;5031347;28;20221;-73
2022/05/29 05:30:56;;;;;;;9.50;3.60;;;;;;;19.66;70.13;93958.28;5019993;28;20211;-74
2022/05/29 05:33:23;;;;;;;9.13;3.25;;;;;;;20.13;67.74;93962.28;5018262;28;20205;-75
2022/05/29 05:35:50;;;;;;;9.02;3.42;;;;;;;21.98;64.54;93969.34;5023829;28;20204;-74
2022/05/29 05:38:17;;;;;;;6.75;2.85;;;;;;;23.91;58.61;93961.16;5027338;28;20568;-74
2022/05/29 05:40:44;;;;;;;6.03;2.80;;;;;;;25.04;56.20;93949.34;5031392;28;20236;-74
2022/05/29 05:43:10;;;;;;;6.75;2.60;;;;;;;26.58;51.41;93944.41;5029650;28;20205;-76
2022/05/29 05:45:42;;;;;;;5.97;2.88;;;;;;;27.24;48.59;93937.78;5019303;28;20240;-74
2022/05/29 05:48:09;;;;;;;3.92;2.75;;;;;;;25.92;51.21;93951.63;5026748;28;20248;-73
2022/05/29 05:50:38;;;;;;;5.22;2.60;;;;;;;25.57;51.48;93958.16;5026357;28;20204;-73
2022/05/29 05:53:06;;;;;;;5.80;2.72;;;;;;;24.23;54.71;93935.53;5030914;28;20196;-74
2022/05/29 05:55:36;;;;;;;4.45;2.78;;;;;;;24.52;55.38;93939.16;5021630;28;20212;-75
2022/05/29 05:58:03;;;;;;;5.25;2.45;;;;;;;25.45;52.93;93941.06;5028784;28;20235;-74
2022/05/29 06:00:30;;;;;;;5.63;2.83;;;;;;;25.22;52.22;93938.56;5031921;28;20579;-76
2022/05/29 06:02:58;;;;;;;9.95;2.40;;;;;;;24.99;53.95;93947.13;5030974;28;20216;-73
2022/05/29 06:05:26;;;;;;;10.73;3.17;;;;;;;24.46;53.89;93945.69;5031321;28;20215;-74
2022/05/29 06:07:53;;;;;;;8.13;3.20;;;;;;;24.06;54.76;93954.06;5025896;28;20197;-74
2022/05/29 06:10:20;;;;;;;6.25;2.83;;;;;;;24.29;55.35;93961.50;5023593;28;20209;-74
2022/05/29 06:12:47;;;;;;;6.75;2.75;;;;;;;25.50;52.79;93959.94;5016209;28;20680;-78
2022/05/29 06:15:14;;;;;;;7.38;2.67;;;;;;;25.00;52.36;93949.44;5031228;28;20207;-75
2022/05/29 06:17:41;;;;;;;6.80;2.72;;;;;;;24.46;52.79;93932.63;5030817;28;20231;-73
2022/05/29 06:20:14;;;;;;;6.22;2.58;;;;;;;24.74;54.42;93948.50;5031137;28;20231;-75
2022/05/29 06:22:42;;;;;;;9.05;2.80;;;;;;;24.18;55.68;93944.34;5018125;28;20738;-73
2022/05/29 06:25:11;;;;;;;7.05;2.90;;;;;;;23.51;57.49;93952.13;5030652;28;20335;-74
2022/05/29 06:27:40;;;;;;;9.23;2.60;;;;;;;22.27;60.27;93938.59;5018993;28;20208;-73
2022/05/29 06:30:11;;;;;;;9.55;3.10;;;;;;;23.03;58.51;93928.59;5018067;28;20655;-73
2022/05/29 06:32:38;;;;;;;7.20;3.45;;;;;;;23.85;56.82;93922.16;5020215;28;20208;-74
2022/05/29 06:35:07;;;;;;;11.60;2.80;;;;;;;24.41;54.34;93914.53;5030867;28;20208;-75
2022/05/29 06:37:37;;;;;;;5.80;2.72;;;;;;;25.01;53.46;93931.59;5030798;28;20204;-75
2022/05/29 06:40:05;;;;;;;9.15;2.55;;;;;;;25.50;51.00;93915.56;5030826;28;20236;-73
2022/05/29 06:42:32;;;;;;;8.45;2.63;;;;;;;24.93;50.80;93912.78;5030825;28;20211;-73
2022/05/29 06:44:59;;;;;;;6.30;2.50;;;;;;;25.40;49.32;93915.88;5030429;28;20224;-74
2022/05/29 06:47:26;;;;;;;3.80;2.30;;;;;;;26.44;48.18;93919.88;5029715;28;20761;-78
2022/05/29 06:49:53;;;;;;;5.90;2.72;;;;;;;25.01;51.58;93905.88;5030110;28;20200;-76
2022/05/29 06:52:20;;;;;;;8.27;2.58;;;;;;;25.57;50.09;93913.78;5024507;28;20654;-76
2022/05/29 06:54:48;;;;;;;8.50;2.50;;;;;;;25.55;49.13;93922.56;5021943;28;20571;-75
2022/05/29 06:57:36;;;;;;;6.25;2.70;;;;;;;26.05;48.04;93896.88;5027018;28;20212;-77
2022/05/29 07:08:19;;;;;;;8.25;2.10;;;;;;;25.14;47.75;93899.19;5034483;28;20200;-75
2022/05/29 07:10:49;;;;;;;4.57;2.08;;;;;;;25.66;47.81;93895.31;5034418;28;20275;-74
2022/05/29 07:13:16;;;;;;;4.43;1.77;;;;;;;25.36;46.95;93893.78;5034301;28;20211;-74
2022/05/29 07:15:43;;;;;;;4.85;2.03;;;;;;;25.31;48.07;93897.09;5034222;28;20228;-74
2022/05/29 07:18:10;;;;;;;7.22;2.17;;;;;;;25.95;48.31;93884.13;5034244;28;20200;-75
2022/05/29 07:20:36;;;;;;;4.65;2.50;;;;;;;25.29;47.61;93877.34;5020867;28;20232;-74
2022/05/29 07:23:03;;;;;;;6.90;1.98;;;;;;;26.22;46.88;93880.09;5023362;28;20247;-75
2022/05/29 07:25:30;;;;;;;11.40;2.22;;;;;;;26.06;46.80;93895.66;5031797;28;20239;-74
2022/05/29 07:27:59;;;;;;;6.63;2.28;;;;;;;25.84;48.62;93894.75;5034258;28;20211;-75
2022/05/29 07:30:26;;;;;;;6.68;2.20;;;;;;;25.65;47.92;93895.75;5029474;28;20201;-75
2022/05/29 07:32:53;;;;;;;4.90;2.45;;;;;;;25.59;48.55;93886.38;5025197;28;20207;-73
2022/05/29 07:35:20;;;;;;;4.15;2.17;;;;;;;25.13;49.94;93896.84;5034425;28;20230;-75
2022/05/29 07:37:46;;;;;;;7.65;2.70;;;;;;;24.76;51.04;93890.66;5034345;28;20647;-75
2022/05/29 07:40:14;;;;;;;5.00;2.40;;;;;;;25.39;50.45;93887.38;5033562;28;20232;-74
2022/05/29 07:45:27;;;;;;;6.60;2.50;;;;;;;24.57;52.29;93891.56;5021420;28;20903;-75
2022/05/29 07:47:55;;;;;;;12.10;1.92;;;;;;;24.34;52.75;93887.00;5034054;28;20279;-73
2022/05/29 07:50:22;;;;;;;5.80;2.35;;;;;;;24.58;51.44;93892.34;5033244;28;20204;-74
2022/05/29 07:52:51;;;;;;;7.22;2.40;;;;;;;25.46;50.57;93892.69;5032200;28;20211;-74
2022/05/29 07:55:18;;;;;;;5.90;2.25;;;;;;;24.61;50.80;93899.78;5022979;28;20303;-77
2022/05/29 07:57:45;;;;;;;4.47;2.15;;;;;;;24.30;52.04;93891.88;5020609;28;20259;-77
2022/05/29 08:00:15;;;;;;;6.82;2.67;;;;;;;24.23;53.16;93896.78;5024395;28;20229;-75
2022/05/29 08:02:43;;;;;;;5.80;2.20;;;;;;;23.95;53.94;93892.69;5027133;28;20722;-76
2022/05/29 08:05:12;;;;;;;7.80;2.63;;;;;;;23.91;53.61;93898.31;5023634;28;20201;-75
2022/05/29 08:07:42;;;;;;;8.07;2.38;;;;;;;24.56;53.36;93887.25;5024631;28;20284;-75
2022/05/29 08:10:11;;;;;;;3.58;2.20;;;;;;;24.59;51.49;93891.94;5033330;28;20249;-78
2022/05/29 08:12:39;;;;;;;6.30;2.38;;;;;;;25.11;51.63;93877.09;5028258;28;20200;-78
2022/05/29 08:15:07;;;;;;;8.07;2.47;;;;;;;24.69;50.63;93868.69;5024862;28;20224;-77
2022/05/29 08:17:34;;;;;;;5.15;2.00;;;;;;;24.72;50.69;93890.00;5020187;28;20235;-76
2022/05/29 08:20:02;;;;;;;6.07;2.28;;;;;;;24.44;50.87;93879.66;5021318;28;20205;-75
2022/05/29 08:22:29;;;;;;;3.65;2.00;;;;;;;24.72;51.75;93862.28;5026603;28;20252;-75
2022/05/29 08:30:43;;;;;;;6.75;2.40;;;;;;;25.42;48.81;93858.72;5033109;28;20862;-78
2022/05/29 08:33:12;;;;;;;6.78;2.45;;;;;;;25.91;48.35;93854.91;5019773;28;20197;-76
2022/05/29 08:35:43;;;;;;;8.70;2.55;;;;;;;26.16;47.40;93869.56;5020380;28;20208;-78
2022/05/29 08:38:11;;;;;;;5.80;2.13;;;;;;;26.08;48.31;93854.34;5032144;28;20730;-77
2022/05/29 08:40:44;;;;;;;9.20;2.58;;;;;;;26.35;48.32;93861.44;5026871;28;20232;-83
2022/05/29 08:43:15;;;;;;;8.32;3.00;;;;;;;26.45;47.91;93855.53;5030377;28;20228;-78
2022/05/29 08:45:43;;;;;;;9.05;2.88;;;;;;;26.21;47.96;93854.34;5027423;28;20747;-79
2022/05/29 08:48:11;;;;;;;6.25;2.40;;;;;;;25.69;49.38;93852.03;5018703;28;20204;-77
2022/05/29 08:50:47;;;;;;;7.60;2.35;;;;;;;26.25;47.49;93843.09;5026838;28;20204;-80
2022/05/29 08:53:26;;;;;;;7.53;2.25;;;;;;;26.59;48.05;93843.16;5032124;28;20199;-79
2022/05/29 08:55:57;;;;;;;6.70;2.53;;;;;;;26.90;45.27;93846.06;5026996;28;20181;-78
2022/05/29 08:58:34;;;;;;;9.80;3.17;;;;;;;26.79;44.34;93851.97;5032917;28;20199;-77
2022/05/29 09:01:16;;;;;;;4.93;2.30;;;;;;;26.33;44.64;93847.22;5025121;28;20207;-75
2022/05/29 09:04:25;;;;;;;5.63;2.10;;;;;;;26.37;45.64;93832.00;5034132;28;20189;-76
2022/05/29 09:07:35;;;;;;;7.03;2.25;;;;;;;26.91;44.93;93836.50;5030119;28;20215;-78
2022/05/29 09:10:11;;;;;;;6.45;2.10;;;;;;;26.01;45.09;93818.47;5026464;28;20203;-76
2022/05/29 09:12:41;;;;;;;7.38;2.42;;;;;;;26.47;45.73;93838.44;5030306;28;20227;-77
2022/05/29 09:15:31;;;;;;;7.50;2.38;;;;;;;25.68;46.23;93836.63;5029085;28;20722;-80
2022/05/29 09:18:03;;;;;;;9.25;2.65;;;;;;;25.62;47.25;93827.28;5030830;28;20184;-80
2022/05/29 09:20:38;;;;;;;6.47;2.40;;;;;;;25.95;46.88;93825.84;5023508;28;20233;-81
2022/05/29 09:23:07;;;;;;;13.70;2.88;;;;;;;25.69;46.85;93824.31;5030321;28;20188;-78
2022/05/29 09:25:38;;;;;;;5.00;2.40;;;;;;;26.43;46.38;93830.19;5028310;28;20205;-79
2022/05/29 09:28:10;;;;;;;9.48;2.20;;;;;;;26.36;45.71;93818.56;5027925;28;20204;-77
2022/05/29 09:30:39;;;;;;;7.70;2.15;;;;;;;25.71;46.54;93819.06;5026485;28;20255;-76
2022/05/29 09:33:25;;;;;;;7.07;2.47;;;;;;;25.23;47.75;93829.22;5028557;28;20200;-75
2022/05/29 09:36:00;;;;;;;5.22;2.33;;;;;;;25.32;47.84;93812.69;5032422;28;20275;-76
2022/05/29 09:38:31;;;;;;;6.90;2.30;;;;;;;25.56;48.17;93806.84;5031125;28;20207;-79
2022/05/29 09:41:05;;;;;;;7.55;2.67;;;;;;;26.26;47.57;93808.56;5031628;28;20232;-76
2022/05/29 09:43:35;;;;;;;4.97;2.30;;;;;;;25.95;47.59;93800.06;5031460;28;20195;-80
2022/05/29 09:46:24;;;;;;;8.80;2.47;;;;;;;25.37;48.13;93800.28;5031129;28;20232;-78
2022/05/29 09:52:04;;;;;;;9.43;3.28;;;;;;;25.53;49.52;93814.06;5026656;28;20295;-80
2022/05/29 09:54:34;;;;;;;6.95;3.13;;;;;;;25.04;49.78;93794.13;5017082;28;20188;-76
2022/05/29 09:57:13;;;;;;;11.43;2.55;;;;;;;25.23;50.12;93784.84;5027763;28;20219;-75
2022/05/29 09:59:44;;;;;;;7.97;2.78;;;;;;;25.50;49.11;93789.97;5028122;28;20185;-76
2022/05/29 10:02:23;;;;;;;12.13;2.92;;;;;;;25.27;49.96;93788.31;5030432;28;20232;-77
2022/05/29 10:04:52;;;;;;;7.60;2.97;;;;;;;25.52;49.29;93786.75;5027491;28;20434;-76
2022/05/29 10:07:30;;;;;;;9.80;2.83;;;;;;;25.73;48.02;93783.31;5027607;28;20224;-77
2022/05/29 10:09:59;;;;;;;9.80;2.83;;;;;;;25.65;47.79;93782.00;5022329;28;20224;-79
2022/05/29 10:14:34;;;;;;;6.43;2.53;;;;;;;24.84;49.52;93785.19;5084821;27;20577;-75
2022/05/29 10:17:01;;;;;;;7.43;2.13;;;;;;;25.03;49.02;93770.41;5067613;28;20697;-77
2022/05/29 10:19:37;;;;;;;6.25;2.33;;;;;;;25.17;49.52;93764.44;5067439;28;20717;-80
2022/05/29 10:22:12;;;;;;;9.90;2.90;;;;;;;25.47;49.41;93763.13;5067506;28;20645;-77
2022/05/29 10:24:40;;;;;;;4.50;2.38;;;;;;;25.29;49.77;93755.34;5068021;28;20582;-80
2022/05/29 10:27:12;;;;;;;9.18;2.90;;;;;;;24.94;51.16;93759.19;5067336;28;20203;-79
2022/05/29 10:29:42;;;;;;;7.65;2.63;;;;;;;25.06;50.54;93759.22;5068492;28;20231;-78
2022/05/29 10:32:20;;;;;;;6.72;2.28;;;;;;;25.09;49.96;93782.50;5066529;28;20679;-78
2022/05/29 10:34:48;;;;;;;7.65;2.70;;;;;;;25.06;50.40;93752.91;5068423;28;20199;-80
2022/05/29 10:37:30;;;;;;;7.45;2.88;;;;;;;25.33;50.50;93750.47;5055043;28;20223;-79
2022/05/29 10:40:17;;;;;;;8.70;2.95;;;;;;;25.30;50.18;93748.56;5068544;28;20246;-80
2022/05/29 10:42:47;;;;;;;6.38;2.70;;;;;;;25.36;50.96;93738.50;5068624;28;20194;-79
2022/05/29 10:45:21;;;;;;;5.65;2.35;;;;;;;25.66;50.17;93745.50;5068042;28;20203;-78
2022/05/29 10:48:26;;;;;;;8.10;3.45;;;;;;;25.69;50.40;93757.72;5067677;28;20191;-75
2022/05/29 10:51:09;;;;;;;7.25;2.90;;;;;;;25.25;51.39;93743.59;5067180;28;20202;-76
2022/05/29 10:53:53;;;;;;;7.70;2.95;;;;;;;25.56;50.03;93745.81;5055096;28;20784;-74
2022/05/29 10:56:30;;;;;;;12.50;3.22;;;;;;;25.48;50.63;93734.94;5067831;28;20198;-80
2022/05/29 10:59:19;;;;;;;8.15;3.08;;;;;;;25.63;51.08;93726.19;5067851;28;20257;-79
2022/05/29 11:05:06;;;;;;;8.55;2.67;;;;;;;25.15;51.95;93711.41;5067042;28;20716;-79
2022/05/29 11:07:49;;;;;;;7.43;2.88;;;;;;;25.24;52.19;93719.09;5066974;28;20203;-77
2022/05/29 11:10:47;;;;;;;10.32;3.17;;;;;;;24.97;52.68;93706.44;5067725;28;20684;-77
2022/05/29 11:13:28;;;;;;;11.45;3.40;;;;;;;25.12;52.48;93687.38;5054300;28;20253;-76
2022/05/29 11:16:07;;;;;;;6.18;3.30;;;;;;;25.22;53.00;93700.13;5066989;28;20227;-80
2022/05/29 11:18:55;;;;;;;11.00;3.28;;;;;;;25.45;51.70;93708.09;5066791;28;20191;-79
2022/05/29 11:21:32;;;;;;;9.25;3.50;;;;;;;25.31;53.39;93696.69;5056198;28;20295;-80
2022/05/29 11:24:13;;;;;;;9.77;3.30;;;;;;;25.77;51.99;93684.09;5062838;28;20195;-81
2022/05/29 11:26:50;;;;;;;5.68;2.80;;;;;;;25.47;51.79;93677.91;5053719;28;20611;-75
2022/05/29 11:29:40;;;;;;;7.35;2.35;;;;;;;25.19;51.93;93662.19;5041718;28;20199;-77
2022/05/29 11:32:20;;;;;;;7.65;2.88;;;;;;;25.31;51.93;93658.63;5053699;28;20351;-77
2022/05/29 11:35:08;;;;;;;12.60;3.85;;;;;;;25.36;51.24;93660.84;5053807;28;20223;-74
2022/05/29 11:37:52;;;;;;;8.57;3.33;;;;;;;25.52;51.37;93664.72;5053731;28;20581;-74
2022/05/29 11:40:22;;;;;;;11.05;3.15;;;;;;;25.28;52.07;93667.88;5053689;28;20218;-77
2022/05/29 11:42:58;;;;;;;7.95;3.22;;;;;;;25.03;52.65;93648.44;5053837;28;20211;-76
2022/05/29 11:51:07;;;;;;;8.25;3.10;;;;;;;25.13;53.22;93658.44;5041235;28;20286;-81
2022/05/29 11:51:20;;;;;;;5.90;3.40;;;;;;;24.98;53.73;93640.72;5052760;28;20261;-78
2022/05/29 11:53:53;;;;;;;4.97;3.53;;;;;;;25.39;53.36;93642.56;5052783;28;20235;-76
2022/05/29 11:56:27;;;;;;;8.57;3.78;;;;;;;25.27;53.07;93638.59;5053192;28;20203;-73
2022/05/29 11:59:02;;;;;;;12.13;3.60;;;;;;;25.22;54.15;93632.81;5052987;28;20220;-81
2022/05/29 12:01:37;;;;;;;9.13;3.92;;;;;;;25.02;54.12;93630.28;5052944;28;20674;-73
2022/05/29 12:04:13;;;;;;;12.82;3.88;;;;;;;25.34;54.16;93630.03;5052970;28;20227;-79
2022/05/29 12:06:46;;;;;;;8.75;3.78;;;;;;;25.27;53.64;93630.28;5053133;28;20280;-75
2022/05/29 12:09:17;;;;;;;9.82;4.07;;;;;;;25.55;53.52;93627.78;5050071;28;20223;-80
2022/05/29 12:11:48;;;;;;;8.98;3.58;;;;;;;25.66;53.50;93639.31;5052991;28;20798;-83
2022/05/29 12:14:26;;;;;;;10.30;3.92;;;;;;;25.62;53.78;93627.53;5052764;28;20662;-80
2022/05/29 12:17:00;;;;;;;9.50;4.30;;;;;;;25.30;53.39;93625.81;5053119;28;20198;-77
2022/05/29 12:19:32;;;;;;;8.23;4.22;;;;;;;25.06;54.14;93614.31;5040098;28;20555;-75
2022/05/29 12:22:07;;;;;;;8.88;4.40;;;;;;;25.08;54.21;93618.19;5051832;28;20214;-79
2022/05/29 12:24:38;;;;;;;9.77;4.90;;;;;;;25.57;54.33;93606.66;5052747;28;20207;-81
2022/05/29 12:27:11;;;;;;;10.38;5.28;;;;;;;25.14;54.35;93612.88;5052627;28;20195;-81
2022/05/29 12:29:43;;;;;;;9.73;5.28;;;;;;;25.14;54.43;93613.66;5052799;28;20229;-80